createdAt,value
2018-12-09T00:00:48.796Z,84.76
2018-12-09T00:03:22.861Z,84.66
2018-12-09T00:05:56.736Z,84.41
2018-12-09T00:08:33.902Z,84.31
2018-12-09T00:11:07.962Z,85.21
2018-12-09T00:13:40.883Z,85.72
2018-12-09T00:16:15.274Z,86.52
2018-12-09T00:18:48.248Z,87.17
2018-12-09T00:21:21.344Z,86.99
2018-12-09T00:23:55.195Z,86.52
2018-12-09T00:26:28.177Z,85.36
2018-12-09T00:29:01.258Z,83.32
2018-12-09T00:31:35.484Z,82.39
2018-12-09T00:34:09.338Z,82.19
2018-12-09T00:36:43.455Z,81.68
2018-12-09T00:39:16.995Z,81.00
2018-12-09T00:41:49.908Z,81.16
2018-12-09T00:44:22.896Z,81.21
2018-12-09T00:46:57.092Z,81.85
2018-12-09T00:49:32.826Z,82.31
2018-12-09T00:52:13.379Z,82.42
2018-12-09T00:54:50.124Z,82.77
2018-12-09T00:57:23.432Z,82.89
2018-12-09T00:59:57.805Z,83.55
2018-12-09T01:02:33.304Z,83.53
2018-12-09T01:05:06.759Z,83.82
2018-12-09T01:07:48.353Z,83.68
2018-12-09T01:10:22.005Z,83.58
2018-12-09T01:12:55.025Z,83.67
2018-12-09T01:15:33.484Z,83.79
2018-12-09T01:18:07.378Z,83.81
2018-12-09T01:20:40.562Z,84.69
2018-12-09T01:23:14.033Z,84.93
2018-12-09T01:25:47.154Z,86.23
2018-12-09T01:28:20.192Z,87.10
2018-12-09T01:30:54.589Z,87.42
2018-12-09T01:33:42.232Z,87.40
2018-12-09T01:36:23.015Z,87.38
2018-12-09T01:39:07.410Z,85.95
2018-12-09T01:41:52.847Z,85.11
2018-12-09T01:44:33.603Z,84.29
2018-12-09T01:47:10.321Z,84.42
2018-12-09T01:49:43.712Z,83.68
2018-12-09T01:52:16.854Z,82.71
2018-12-09T01:54:50.076Z,82.74
2018-12-09T01:57:27.366Z,83.08
2018-12-09T02:00:00.512Z,82.96
2018-12-09T02:02:34.932Z,83.13
2018-12-09T02:05:10.107Z,81.57
2018-12-09T02:07:43.609Z,81.51
2018-12-09T02:10:17.056Z,80.94
2018-12-09T02:12:51.889Z,81.06
2018-12-09T02:15:27.175Z,81.25
2018-12-09T02:18:00.173Z,81.18
2018-12-09T02:20:34.072Z,80.51
2018-12-09T02:23:07.161Z,80.30
2018-12-09T02:25:40.228Z,80.60
2018-12-09T02:28:13.617Z,81.75
2018-12-09T02:30:48.144Z,84.45
2018-12-09T02:33:21.414Z,86.37
2018-12-09T02:35:55.028Z,88.05
2018-12-09T02:38:28.795Z,88.95
2018-12-09T02:41:02.384Z,89.40
2018-12-09T02:43:36.954Z,89.38
2018-12-09T02:46:10.690Z,89.25
2018-12-09T02:48:44.607Z,88.92
2018-12-09T02:51:18.079Z,88.80
2018-12-09T02:53:51.876Z,89.60
2018-12-09T02:56:25.074Z,88.14
2018-12-09T02:58:59.816Z,88.46
2018-12-09T03:01:33.932Z,86.62
2018-12-09T03:04:06.992Z,86.10
2018-12-09T03:06:40.541Z,87.26
2018-12-09T03:09:13.566Z,88.56
2018-12-09T03:11:46.711Z,89.14
2018-12-09T03:14:20.232Z,89.43
2018-12-09T03:16:53.200Z,90.02
2018-12-09T03:19:26.214Z,90.95
2018-12-09T03:21:59.679Z,91.30
2018-12-09T03:24:33.228Z,91.99
2018-12-09T03:27:06.238Z,92.06
2018-12-09T03:29:41.447Z,92.32
2018-12-09T03:32:14.390Z,92.25
2018-12-09T03:34:47.764Z,92.25
2018-12-09T03:37:21.261Z,91.82
2018-12-09T03:39:54.433Z,91.41
2018-12-09T03:42:27.783Z,90.99
2018-12-09T03:45:03.327Z,89.95
2018-12-09T03:47:36.452Z,89.30
2018-12-09T03:50:12.057Z,88.99
2018-12-09T03:52:45.569Z,89.29
2018-12-09T03:55:18.899Z,89.23
2018-12-09T03:57:52.131Z,89.36
2018-12-09T04:00:25.062Z,89.92
2018-12-09T04:02:58.504Z,90.25
2018-12-09T04:05:31.663Z,90.33
2018-12-09T04:08:08.910Z,90.48
2018-12-09T04:11:06.807Z,91.14
2018-12-09T04:14:05.569Z,91.54
2018-12-09T04:17:05.736Z,92.00
2018-12-09T04:20:07.397Z,92.04
2018-12-09T04:23:07.961Z,92.03
2018-12-09T04:26:09.630Z,91.76
2018-12-09T04:29:11.094Z,91.45
2018-12-09T04:32:10.689Z,91.51
2018-12-09T04:35:08.728Z,91.57
2018-12-09T04:38:08.301Z,91.73
2018-12-09T04:41:07.807Z,91.52
2018-12-09T04:44:09.476Z,91.08
2018-12-09T04:47:08.015Z,90.68
2018-12-09T04:50:09.023Z,91.01
2018-12-09T04:53:08.300Z,91.08
2018-12-09T04:56:07.516Z,91.13
2018-12-09T04:59:32.696Z,91.10
2018-12-09T05:02:32.964Z,91.62
2018-12-09T05:05:32.231Z,92.08
2018-12-09T05:08:31.208Z,92.56
2018-12-09T05:11:08.162Z,92.92
2018-12-09T05:13:55.888Z,92.88
2018-12-09T05:16:54.147Z,92.26
2018-12-09T05:19:50.601Z,91.20
2018-12-09T05:22:28.337Z,90.39
2018-12-09T05:25:20.500Z,90.16
2018-12-09T05:28:15.067Z,90.07
2018-12-09T05:31:16.420Z,90.25
2018-12-09T05:34:13.475Z,90.25
2018-12-09T05:37:12.051Z,90.42
2018-12-09T05:39:50.890Z,90.45
2018-12-09T05:42:24.468Z,90.54
2018-12-09T05:44:57.961Z,91.05
2018-12-09T05:47:30.934Z,91.67
2018-12-09T05:50:04.594Z,91.99
2018-12-09T05:52:46.020Z,92.22
2018-12-09T05:55:29.216Z,92.46
2018-12-09T05:58:14.844Z,92.39
2018-12-09T06:01:14.763Z,92.26
2018-12-09T06:03:59.594Z,92.17
2018-12-09T06:06:43.089Z,91.24
2018-12-09T06:09:27.578Z,91.29
2018-12-09T06:12:11.073Z,91.84
2018-12-09T06:14:54.703Z,92.38
2018-12-09T06:17:36.402Z,91.97
2018-12-09T06:20:20.666Z,92.04
2018-12-09T06:23:12.774Z,92.51
2018-12-09T06:25:51.480Z,92.66
2018-12-09T06:28:29.066Z,93.50
2018-12-09T06:31:14.355Z,94.09
2018-12-09T06:33:57.979Z,94.61
2018-12-09T06:36:43.212Z,95.18
2018-12-09T06:39:25.923Z,96.04
2018-12-09T06:42:06.456Z,96.13
2018-12-09T06:44:41.699Z,96.67
2018-12-09T06:47:15.382Z,96.84
2018-12-09T06:49:48.358Z,96.87
2018-12-09T06:52:21.335Z,96.76
2018-12-09T06:54:57.321Z,96.17
2018-12-09T06:57:30.372Z,95.94
2018-12-09T07:00:05.324Z,95.34
2018-12-09T07:02:38.835Z,95.24
2018-12-09T07:05:13.285Z,94.97
2018-12-09T07:07:47.180Z,95.00
2018-12-09T07:10:21.639Z,94.73
2018-12-09T07:12:54.876Z,94.42
2018-12-09T07:15:27.842Z,93.66
2018-12-09T07:18:01.231Z,93.53
2018-12-09T07:20:34.205Z,92.76
2018-12-09T07:23:07.163Z,92.33
2018-12-09T07:25:42.708Z,91.79
2018-12-09T07:28:15.585Z,91.40
2018-12-09T07:30:48.597Z,91.56
2018-12-09T07:33:22.019Z,91.50
2018-12-09T07:35:56.049Z,91.18
2018-12-09T07:38:29.895Z,90.61
2018-12-09T07:41:03.423Z,90.34
2018-12-09T07:43:36.438Z,89.50
2018-12-09T07:46:10.354Z,89.28
2018-12-09T07:48:44.042Z,88.88
2018-12-09T07:51:18.949Z,88.72
2018-12-09T07:53:52.568Z,88.54
2018-12-09T07:56:27.073Z,88.35
2018-12-09T07:59:00.079Z,87.99
2018-12-09T08:01:33.122Z,87.84
2018-12-09T08:04:12.485Z,87.59
2018-12-09T08:06:49.094Z,87.48
2018-12-09T08:09:34.139Z,87.01
2018-12-09T08:12:09.196Z,87.02
2018-12-09T08:14:43.723Z,85.60
2018-12-09T08:17:29.226Z,85.15
2018-12-09T08:20:13.875Z,85.24
2018-12-09T08:22:58.797Z,85.49
2018-12-09T08:25:41.520Z,85.19
2018-12-09T08:28:16.793Z,85.38
2018-12-09T08:30:53.091Z,85.13
2018-12-09T08:33:26.894Z,84.47
2018-12-09T08:36:01.403Z,84.04
2018-12-09T08:38:35.045Z,84.29
2018-12-09T08:41:08.797Z,83.73
2018-12-09T08:43:42.083Z,83.70
2018-12-09T08:46:18.434Z,83.33
2018-12-09T08:48:52.620Z,83.65
2018-12-09T08:51:26.330Z,83.43
2018-12-09T08:54:02.933Z,83.18
2018-12-09T08:56:39.655Z,83.58
2018-12-09T08:59:14.471Z,83.83
2018-12-09T09:01:48.435Z,83.45
2018-12-09T09:04:21.471Z,83.76
2018-12-09T09:06:55.670Z,83.67
2018-12-09T09:09:33.509Z,83.50
2018-12-09T09:12:06.668Z,83.30
2018-12-09T09:14:42.315Z,83.78
2018-12-09T09:17:16.976Z,84.15
2018-12-09T09:19:51.012Z,84.93
2018-12-09T09:22:24.859Z,85.06
2018-12-09T09:24:57.873Z,85.17
2018-12-09T09:27:32.917Z,85.15
2018-12-09T09:30:08.532Z,84.61
2018-12-09T09:32:41.631Z,84.62
2018-12-09T09:35:16.958Z,84.20
2018-12-09T09:37:50.274Z,84.31
2018-12-09T09:40:25.293Z,84.26
2018-12-09T09:43:01.362Z,84.64
2018-12-09T09:45:34.513Z,84.65
2018-12-09T09:48:08.435Z,84.80
2018-12-09T09:50:42.309Z,85.08
2018-12-09T09:53:15.875Z,86.13
2018-12-09T09:55:51.446Z,86.36
2018-12-09T09:58:28.395Z,86.42
2018-12-09T10:01:01.429Z,86.66
2018-12-09T10:03:34.711Z,86.76
2018-12-09T10:06:08.995Z,87.72
2018-12-09T10:08:51.849Z,89.27
2018-12-09T10:11:24.829Z,90.77
2018-12-09T10:13:59.958Z,91.47
2018-12-09T10:16:33.341Z,91.93
2018-12-09T10:19:10.139Z,92.74
2018-12-09T10:21:45.268Z,93.47
2018-12-09T10:24:20.459Z,93.77
2018-12-09T10:26:54.452Z,93.96
2018-12-09T10:29:31.711Z,94.19
2018-12-09T10:32:05.251Z,93.96
2018-12-09T10:34:39.594Z,93.84
2018-12-09T10:37:24.191Z,93.62
2018-12-09T10:40:05.594Z,94.03
2018-12-09T10:42:40.436Z,94.30
2018-12-09T10:45:15.787Z,94.48
2018-12-09T10:47:53.814Z,94.43
2018-12-09T10:50:29.452Z,94.71
2018-12-09T10:53:04.925Z,94.69
2018-12-09T10:55:41.750Z,94.64
2018-12-09T10:58:15.991Z,94.71
2018-12-09T11:01:07.848Z,94.80
2018-12-09T11:03:53.631Z,94.73
2018-12-09T11:06:29.249Z,94.92
2018-12-09T11:09:05.417Z,94.97
2018-12-09T11:11:45.479Z,95.03
2018-12-09T11:14:18.713Z,94.83
2018-12-09T11:16:53.612Z,94.84
2018-12-09T11:19:28.779Z,94.62
2018-12-09T11:22:05.118Z,94.34
2018-12-09T11:24:40.171Z,94.04
2018-12-09T11:27:14.302Z,93.65
2018-12-09T11:29:48.396Z,93.15
2018-12-09T11:32:22.118Z,92.99
2018-12-09T11:34:56.930Z,92.42
2018-12-09T11:37:30.979Z,91.65
2018-12-09T11:40:07.648Z,91.63
2018-12-09T11:42:42.665Z,91.82
2018-12-09T11:45:18.799Z,90.72
2018-12-09T11:47:56.647Z,90.59
2018-12-09T11:50:32.484Z,90.68
2018-12-09T11:53:08.705Z,90.99
2018-12-09T11:55:44.985Z,86.49
2018-12-09T11:58:21.773Z,85.56
2018-12-09T12:01:02.364Z,87.78
2018-12-09T12:03:38.524Z,90.57
2018-12-09T12:06:12.337Z,92.82
2018-12-09T12:08:47.372Z,94.26
2018-12-09T12:11:22.027Z,94.99
2018-12-09T12:14:00.171Z,95.60
2018-12-09T12:16:33.885Z,95.95
2018-12-09T12:19:11.276Z,96.84
2018-12-09T12:21:46.068Z,97.09
2018-12-09T12:24:20.874Z,97.45
2018-12-09T12:26:56.944Z,97.64
2018-12-09T12:29:31.840Z,97.83
2018-12-09T12:32:05.840Z,98.02
2018-12-09T12:34:44.204Z,98.23
2018-12-09T12:37:17.408Z,98.55
2018-12-09T12:39:53.601Z,98.71
2018-12-09T12:42:30.397Z,98.91
2018-12-09T12:45:06.994Z,98.99
2018-12-09T12:47:42.532Z,99.08
2018-12-09T12:50:17.231Z,99.18
2018-12-09T12:52:57.981Z,99.32
2018-12-09T12:55:39.451Z,99.47
2018-12-09T12:58:13.128Z,99.64
2018-12-09T13:00:46.154Z,99.77
2018-12-09T13:03:27.334Z,99.96
2018-12-09T13:06:03.110Z,100.00
2018-12-09T13:08:37.477Z,100.00
2018-12-09T13:11:13.471Z,100.00
2018-12-09T13:13:48.476Z,100.00
2018-12-09T13:16:22.695Z,100.00
2018-12-09T13:18:59.726Z,100.00
2018-12-09T13:21:34.735Z,100.00
2018-12-09T13:24:09.512Z,100.00
2018-12-09T13:26:45.842Z,100.00
2018-12-09T13:29:19.691Z,100.00
2018-12-09T13:31:54.468Z,100.00
2018-12-09T13:34:29.391Z,100.00
2018-12-09T13:37:05.374Z,100.00
2018-12-09T13:39:41.202Z,100.00
2018-12-09T13:42:16.088Z,100.00
2018-12-09T13:44:51.618Z,100.00
2018-12-09T13:47:26.418Z,100.00
2018-12-09T13:50:01.177Z,100.00
2018-12-09T13:52:35.425Z,100.00
2018-12-09T13:55:15.719Z,100.00
2018-12-09T13:57:48.767Z,100.00
2018-12-09T14:00:24.741Z,100.00
2018-12-09T14:03:01.940Z,100.00
2018-12-09T14:05:37.448Z,100.00
2018-12-09T14:08:13.298Z,100.00
2018-12-09T14:10:46.735Z,100.00
2018-12-09T14:13:20.480Z,99.88
2018-12-09T14:15:56.758Z,99.76
2018-12-09T14:18:31.069Z,99.62
2018-12-09T14:21:05.460Z,99.53
2018-12-09T14:23:39.835Z,99.41
2018-12-09T14:26:13.953Z,99.15
2018-12-09T14:28:47.339Z,99.02
2018-12-09T14:31:23.658Z,98.79
2018-12-09T14:33:59.778Z,98.66
2018-12-09T14:36:35.290Z,98.53
2018-12-09T14:39:10.420Z,98.38
2018-12-09T14:41:48.116Z,98.13
2018-12-09T14:44:23.537Z,97.69
2018-12-09T14:46:59.664Z,97.37
2018-12-09T14:49:34.312Z,96.76
2018-12-09T14:52:08.703Z,96.48
2018-12-09T14:54:44.004Z,96.47
2018-12-09T14:57:17.492Z,96.57
2018-12-09T14:59:52.425Z,96.48
2018-12-09T15:02:27.524Z,96.25
2018-12-09T15:05:03.124Z,96.20
2018-12-09T15:07:38.600Z,96.11
2018-12-09T15:10:20.434Z,96.06
2018-12-09T15:12:55.595Z,96.01
2018-12-09T15:15:32.588Z,96.06
2018-12-09T15:18:06.440Z,96.34
2018-12-09T15:20:40.703Z,96.71
2018-12-09T15:23:19.293Z,96.93
2018-12-09T15:25:53.680Z,96.90
2018-12-09T15:28:27.383Z,96.79
2018-12-09T15:31:01.745Z,96.81
2018-12-09T15:33:37.666Z,96.88
2018-12-09T15:36:11.502Z,96.51
2018-12-09T15:38:46.265Z,96.18
2018-12-09T15:41:20.324Z,95.83
2018-12-09T15:43:54.581Z,95.39
2018-12-09T15:46:28.072Z,94.93
2018-12-09T15:49:01.817Z,94.35
2018-12-09T15:51:35.791Z,93.19
2018-12-09T15:54:10.634Z,92.50
2018-12-09T15:56:45.668Z,91.77
2018-12-09T15:59:20.843Z,91.70
2018-12-09T16:01:55.348Z,91.86
2018-12-09T16:04:30.970Z,92.06
2018-12-09T16:07:06.155Z,92.06
2018-12-09T16:09:40.512Z,92.00
2018-12-09T16:12:14.278Z,91.94
2018-12-09T16:14:48.647Z,91.71
2018-12-09T16:17:22.439Z,91.69
2018-12-09T16:19:56.397Z,91.85
2018-12-09T16:22:30.718Z,92.24
2018-12-09T16:25:07.700Z,92.29
2018-12-09T16:27:41.933Z,92.61
2018-12-09T16:30:18.845Z,93.05
2018-12-09T16:32:56.765Z,93.22
2018-12-09T16:35:32.418Z,93.62
2018-12-09T16:38:07.148Z,93.91
2018-12-09T16:40:40.942Z,94.16
2018-12-09T16:43:14.902Z,94.51
2018-12-09T16:45:50.788Z,94.77
2018-12-09T16:48:24.704Z,94.60
2018-12-09T16:51:01.559Z,94.36
2018-12-09T16:53:38.429Z,94.34
2018-12-09T16:56:14.899Z,94.28
2018-12-09T16:58:50.477Z,93.75
2018-12-09T17:01:28.025Z,93.09
2018-12-09T17:04:02.998Z,92.98
2018-12-09T17:06:37.799Z,92.92
2018-12-09T17:09:19.633Z,93.05
2018-12-09T17:11:54.641Z,93.27
2018-12-09T17:14:28.612Z,93.29
2018-12-09T17:17:05.059Z,93.50
2018-12-09T17:19:39.463Z,93.58
2018-12-09T17:22:13.730Z,93.62
2018-12-09T17:24:51.549Z,93.46
2018-12-09T17:27:25.782Z,93.33
2018-12-09T17:29:59.795Z,93.10
2018-12-09T17:32:39.398Z,92.82
2018-12-09T17:35:14.042Z,93.49
2018-12-09T17:37:51.094Z,92.78
2018-12-09T17:40:25.560Z,91.94
2018-12-09T17:42:59.986Z,91.90
2018-12-09T17:45:34.751Z,91.84
2018-12-09T17:48:08.974Z,91.44
2018-12-09T17:50:42.645Z,91.08
2018-12-09T17:53:17.683Z,91.03
2018-12-09T17:55:56.702Z,91.05
2018-12-09T17:58:31.896Z,90.37
2018-12-09T18:01:15.383Z,90.18
2018-12-09T18:03:48.747Z,90.19
2018-12-09T18:06:21.942Z,89.92
2018-12-09T18:08:59.044Z,89.08
2018-12-09T18:11:32.670Z,88.89
2018-12-09T18:14:11.432Z,89.03
2018-12-09T18:16:46.879Z,88.85
2018-12-09T18:19:24.213Z,88.64
2018-12-09T18:22:06.569Z,88.74
2018-12-09T18:24:45.300Z,88.61
2018-12-09T18:27:22.019Z,88.53
2018-12-09T18:30:00.114Z,88.76
2018-12-09T18:32:33.760Z,88.71
2018-12-09T18:35:11.530Z,88.30
2018-12-09T18:37:54.957Z,88.14
2018-12-09T18:40:31.235Z,88.22
2018-12-09T18:43:08.124Z,88.18
2018-12-09T18:45:42.041Z,88.15
2018-12-09T18:48:17.388Z,88.15
2018-12-09T18:50:55.904Z,88.15
2018-12-09T18:53:31.133Z,88.24
2018-12-09T18:56:09.155Z,88.31
2018-12-09T18:58:43.123Z,88.42
2018-12-09T19:01:16.223Z,88.33
2018-12-09T19:03:52.009Z,88.37
2018-12-09T19:06:27.152Z,88.30
2018-12-09T19:09:03.714Z,87.89
2018-12-09T19:11:38.346Z,87.81
2018-12-09T19:14:13.258Z,87.98
2018-12-09T19:16:47.601Z,88.08
2018-12-09T19:19:23.115Z,87.98
2018-12-09T19:21:58.802Z,87.63
2018-12-09T19:24:35.791Z,87.21
2018-12-09T19:27:10.328Z,87.30
2018-12-09T19:29:46.178Z,87.60
2018-12-09T19:32:19.407Z,87.67
2018-12-09T19:34:56.478Z,88.05
2018-12-09T19:37:30.986Z,88.96
2018-12-09T19:40:08.750Z,89.18
2018-12-09T19:42:45.209Z,89.90
2018-12-09T19:45:19.432Z,90.03
2018-12-09T19:47:57.901Z,90.42
2018-12-09T19:50:39.076Z,90.77
2018-12-09T19:53:16.155Z,91.05
2018-12-09T19:55:53.425Z,91.30
2018-12-09T19:58:29.901Z,91.68
2018-12-09T20:01:10.354Z,92.03
2018-12-09T20:03:50.188Z,92.18
2018-12-09T20:06:30.200Z,92.22
2018-12-09T20:09:17.588Z,92.81
2018-12-09T20:11:55.225Z,92.86
2018-12-09T20:14:34.473Z,93.17
2018-12-09T20:17:10.139Z,93.89
2018-12-09T20:19:45.057Z,93.96
2018-12-09T20:22:18.859Z,94.07
2018-12-09T20:24:54.778Z,93.93
2018-12-09T20:27:30.117Z,93.97
2018-12-09T20:30:07.911Z,93.98
2018-12-09T20:32:43.198Z,94.01
2018-12-09T20:35:16.850Z,94.01
2018-12-09T20:37:53.263Z,93.89
2018-12-09T20:40:34.847Z,93.83
2018-12-09T20:43:13.252Z,93.75
2018-12-09T20:45:47.791Z,93.53
2018-12-09T20:48:23.678Z,93.49
2018-12-09T20:50:57.850Z,93.48
2018-12-09T20:53:32.538Z,93.25
2018-12-09T20:56:06.209Z,92.99
2018-12-09T20:58:40.670Z,93.09
2018-12-09T21:01:16.074Z,93.09
2018-12-09T21:03:52.255Z,92.89
2018-12-09T21:06:28.036Z,92.67
2018-12-09T21:09:01.543Z,92.48
2018-12-09T21:12:08.906Z,91.97
2018-12-09T21:14:45.034Z,91.67
2018-12-09T21:17:20.503Z,90.79
2018-12-09T21:19:55.966Z,90.32
2018-12-09T21:22:29.908Z,89.98
2018-12-09T21:25:03.067Z,89.58
2018-12-09T21:27:43.203Z,89.40
2018-12-09T21:30:18.133Z,89.31
2018-12-09T21:32:51.383Z,88.74
2018-12-09T21:35:26.092Z,88.68
2018-12-09T21:38:01.155Z,88.85
2018-12-09T21:40:36.066Z,88.85
2018-12-09T21:43:10.761Z,89.16
2018-12-09T21:45:47.431Z,89.35
2018-12-09T21:48:23.509Z,89.80
2018-12-09T21:50:59.298Z,90.25
2018-12-09T21:53:32.989Z,90.39
2018-12-09T21:56:06.676Z,90.41
2018-12-09T21:58:48.077Z,90.41
2018-12-09T22:01:21.259Z,90.45
2018-12-09T22:03:54.860Z,90.45
2018-12-09T22:06:30.049Z,90.50
2018-12-09T22:09:06.322Z,90.45
2018-12-09T22:11:41.038Z,90.64
2018-12-09T22:14:16.073Z,90.78
2018-12-09T22:16:49.921Z,90.59
2018-12-09T22:19:23.008Z,90.52
2018-12-09T22:21:56.095Z,90.62
2018-12-09T22:24:30.533Z,90.51
2018-12-09T22:27:05.123Z,90.76
2018-12-09T22:29:38.522Z,91.09
2018-12-09T22:32:12.120Z,91.06
2018-12-09T22:34:45.133Z,91.01
2018-12-09T22:37:19.322Z,90.89
2018-12-09T22:39:53.842Z,90.88
2018-12-09T22:42:28.560Z,90.81
2018-12-09T22:45:03.905Z,90.51
2018-12-09T22:47:37.628Z,90.25
2018-12-09T22:50:14.426Z,90.11
2018-12-09T22:52:48.253Z,89.89
2018-12-09T22:55:22.081Z,89.65
2018-12-09T22:57:56.102Z,89.61
2018-12-09T23:00:32.342Z,89.58
2018-12-09T23:03:07.397Z,89.53
2018-12-09T23:05:40.539Z,89.43
2018-12-09T23:08:14.380Z,89.34
2018-12-09T23:10:47.588Z,89.52
2018-12-09T23:13:22.056Z,90.07
2018-12-09T23:15:55.563Z,90.47
2018-12-09T23:18:29.533Z,90.92
2018-12-09T23:21:04.448Z,90.99
2018-12-09T23:23:39.242Z,90.83
2018-12-09T23:26:12.207Z,90.87
2018-12-09T23:28:45.436Z,91.27
2018-12-09T23:31:19.365Z,91.46
2018-12-09T23:33:52.856Z,91.54
2018-12-09T23:36:26.751Z,91.57
2018-12-09T23:39:01.600Z,91.69
2018-12-09T23:41:34.665Z,91.71
2018-12-09T23:44:09.201Z,91.78
2018-12-09T23:46:43.936Z,91.86
2018-12-09T23:49:17.184Z,91.94
2018-12-09T23:51:50.260Z,92.01
2018-12-09T23:54:27.064Z,91.98
2018-12-09T23:57:00.156Z,92.05
2018-12-09T23:59:34.604Z,92.09
